createdAt,value
2019-04-13T00:01:27.112Z,99842.84
2019-04-13T00:03:55.967Z,99847.84
2019-04-13T00:06:27.724Z,99837.30
2019-04-13T00:08:56.279Z,99833.73
2019-04-13T00:11:26.509Z,99836.59
2019-04-13T00:13:55.530Z,99826.19
2019-04-13T00:16:24.407Z,99827.37
2019-04-13T00:18:52.827Z,99832.30
2019-04-13T00:21:21.323Z,99834.70
2019-04-13T00:23:50.138Z,99829.52
2019-04-13T00:26:18.590Z,99826.34
2019-04-13T00:28:46.941Z,99825.84
2019-04-13T00:31:15.760Z,99821.00
2019-04-13T00:33:44.380Z,99825.13
2019-04-13T00:36:13.322Z,99823.70
2019-04-13T00:38:43.733Z,99819.75
2019-04-13T00:41:12.426Z,99823.90
2019-04-13T00:43:40.978Z,99823.72
2019-04-13T00:46:09.503Z,99827.02
2019-04-13T00:48:37.976Z,99821.52
2019-04-13T00:51:06.905Z,99818.48
2019-04-13T00:53:37.433Z,99826.31
2019-04-13T00:56:05.886Z,99816.60
2019-04-13T00:58:35.329Z,99819.83
2019-04-13T01:01:04.256Z,99815.08
2019-04-13T01:03:33.608Z,99818.39
2019-04-13T01:06:02.177Z,99817.34
2019-04-13T01:08:30.733Z,99814.36
2019-04-13T01:10:59.529Z,99813.11
2019-04-13T01:13:28.015Z,99813.78
2019-04-13T01:15:56.672Z,99811.80
2019-04-13T01:18:25.235Z,99809.33
2019-04-13T01:20:53.678Z,99812.18
2019-04-13T01:23:22.609Z,99810.02
2019-04-13T01:25:51.081Z,99804.38
2019-04-13T01:28:19.716Z,99806.21
2019-04-13T01:30:48.357Z,99803.17
2019-04-13T01:33:16.775Z,99804.09
2019-04-13T01:35:45.153Z,99800.19
2019-04-13T01:38:15.284Z,99798.88
2019-04-13T01:40:44.551Z,99800.23
2019-04-13T01:43:13.221Z,99805.30
2019-04-13T01:45:43.403Z,99800.67
2019-04-13T01:48:12.141Z,99798.51
2019-04-13T01:50:41.418Z,99790.56
2019-04-13T01:53:10.606Z,99793.16
2019-04-13T01:55:38.949Z,99783.06
2019-04-13T01:58:07.924Z,99778.89
2019-04-13T02:00:37.949Z,99778.84
2019-04-13T02:03:07.850Z,99778.05
2019-04-13T02:05:43.699Z,99769.73
2019-04-13T02:08:33.582Z,99774.52
2019-04-13T02:11:13.151Z,99768.06
2019-04-13T02:13:41.817Z,99778.80
2019-04-13T02:16:10.533Z,99771.11
2019-04-13T02:18:39.052Z,99773.73
2019-04-13T02:21:07.546Z,99772.00
2019-04-13T02:23:37.002Z,99771.83
2019-04-13T02:26:05.783Z,99770.52
2019-04-13T02:28:34.232Z,99769.45
2019-04-13T02:31:02.750Z,99763.55
2019-04-13T02:33:31.201Z,99766.71
2019-04-13T02:35:59.617Z,99767.38
2019-04-13T02:38:28.003Z,99770.99
2019-04-13T02:40:56.421Z,99767.04
2019-04-13T02:43:24.878Z,99764.80
2019-04-13T02:45:53.299Z,99761.88
2019-04-13T02:48:21.671Z,99757.53
2019-04-13T02:50:50.025Z,99748.63
2019-04-13T02:53:18.552Z,99755.56
2019-04-13T02:55:46.903Z,99753.10
2019-04-13T02:58:15.349Z,99751.69
2019-04-13T03:00:43.765Z,99749.61
2019-04-13T03:03:12.212Z,99756.58
2019-04-13T03:05:46.935Z,99755.92
2019-04-13T03:08:11.071Z,99756.21
2019-04-13T03:10:39.494Z,99755.96
2019-04-13T03:13:08.006Z,99754.86
2019-04-13T03:15:43.768Z,99757.45
2019-04-13T03:18:13.860Z,99754.30
2019-04-13T03:20:42.280Z,99761.23
2019-04-13T03:23:10.662Z,99758.63
2019-04-13T03:25:40.825Z,99761.61
2019-04-13T03:28:09.208Z,99760.47
2019-04-13T03:30:38.530Z,99758.01
2019-04-13T03:33:06.982Z,99762.14
2019-04-13T03:35:35.347Z,99762.89
2019-04-13T03:38:03.803Z,99763.22
2019-04-13T03:40:32.193Z,99758.66
2019-04-13T03:43:00.730Z,99750.89
2019-04-13T03:45:29.085Z,99751.61
2019-04-13T03:47:57.423Z,99752.88
2019-04-13T03:50:25.800Z,99755.97
2019-04-13T03:52:54.230Z,99757.56
2019-04-13T03:55:23.035Z,99761.59
2019-04-13T03:57:51.991Z,99761.45
2019-04-13T04:00:20.981Z,99762.64
2019-04-13T04:02:49.779Z,99762.48
2019-04-13T04:05:18.871Z,99765.28
2019-04-13T04:07:47.698Z,99763.68
2019-04-13T04:10:16.726Z,99761.03
2019-04-13T04:12:45.537Z,99757.89
2019-04-13T04:15:14.906Z,99756.68
2019-04-13T04:17:43.941Z,99762.38
2019-04-13T04:20:12.863Z,99766.95
2019-04-13T04:22:42.326Z,99766.33
2019-04-13T04:25:10.884Z,99767.92
2019-04-13T04:27:39.235Z,99770.14
2019-04-13T04:30:07.685Z,99770.05
2019-04-13T04:32:36.041Z,99768.68
2019-04-13T04:35:06.155Z,99769.08
2019-04-13T04:37:34.579Z,99771.78
2019-04-13T04:40:04.089Z,99767.84
2019-04-13T04:42:32.505Z,99771.26
2019-04-13T04:45:00.885Z,99776.64
2019-04-13T04:47:29.230Z,99768.08
2019-04-13T04:49:57.607Z,99770.31
2019-04-13T04:52:27.953Z,99772.23
2019-04-13T04:54:56.408Z,99774.09
2019-04-13T04:57:24.768Z,99778.41
2019-04-13T04:59:53.343Z,99778.67
2019-04-13T05:02:21.803Z,99782.77
2019-04-13T05:04:50.178Z,99783.45
2019-04-13T05:07:18.527Z,99788.00
2019-04-13T05:09:46.877Z,99786.86
2019-04-13T05:12:15.255Z,99784.02
2019-04-13T05:14:43.595Z,99792.23
2019-04-13T05:17:12.045Z,99790.16
2019-04-13T05:19:40.393Z,99799.27
2019-04-13T05:22:08.839Z,99803.77
2019-04-13T05:24:37.256Z,99806.73
2019-04-13T05:27:05.635Z,99811.88
2019-04-13T05:29:34.056Z,99811.27
2019-04-13T05:32:02.444Z,99817.22
2019-04-13T05:34:30.793Z,99813.40
2019-04-13T05:36:59.175Z,99821.90
2019-04-13T05:39:29.159Z,99820.31
2019-04-13T05:41:57.645Z,99826.13
2019-04-13T05:44:25.986Z,99825.73
2019-04-13T05:46:54.365Z,99830.94
2019-04-13T05:49:22.718Z,99824.33
2019-04-13T05:51:51.161Z,99828.61
2019-04-13T05:54:19.509Z,99824.27
2019-04-13T05:56:47.889Z,99830.66
2019-04-13T05:59:16.228Z,99825.95
2019-04-13T06:01:44.609Z,99831.39
2019-04-13T06:04:13.026Z,99838.35
2019-04-13T06:06:41.416Z,99837.83
2019-04-13T06:09:12.513Z,99836.74
2019-04-13T06:11:39.859Z,99830.38
2019-04-13T06:14:08.204Z,99830.91
2019-04-13T06:16:37.508Z,99834.02
2019-04-13T06:19:06.730Z,99837.98
2019-04-13T06:21:37.394Z,99840.14
2019-04-13T06:24:05.251Z,99840.27
2019-04-13T06:26:33.596Z,99839.44
2019-04-13T06:29:04.854Z,99847.61
2019-04-13T06:31:36.533Z,99845.91
2019-04-13T06:34:06.729Z,99847.95
2019-04-13T06:36:35.068Z,99843.70
2019-04-13T06:39:05.332Z,99842.70
2019-04-13T06:41:34.819Z,99848.48
2019-04-13T06:44:03.426Z,99852.77
2019-04-13T06:46:31.798Z,99850.16
2019-04-13T06:49:00.179Z,99853.14
2019-04-13T06:51:28.531Z,99857.78
2019-04-13T06:53:56.904Z,99855.54
2019-04-13T06:56:25.251Z,99851.72
2019-04-13T06:58:56.035Z,99851.77
2019-04-13T07:01:23.773Z,99859.71
2019-04-13T07:03:54.398Z,99861.73
2019-04-13T07:06:22.295Z,99850.23
2019-04-13T07:09:07.591Z,99853.14
2019-04-13T07:11:40.206Z,99855.91
2019-04-13T07:14:10.249Z,99854.23
2019-04-13T07:16:43.319Z,99850.98
2019-04-13T07:19:10.342Z,99847.91
2019-04-13T07:21:38.687Z,99857.47
2019-04-13T07:24:07.066Z,99853.25
2019-04-13T07:26:35.414Z,99859.28
2019-04-13T07:29:03.946Z,99849.99
2019-04-13T07:31:32.367Z,99850.80
2019-04-13T07:34:00.926Z,99852.06
2019-04-13T07:36:29.227Z,99859.94
2019-04-13T07:38:57.670Z,99862.58
2019-04-13T07:41:26.089Z,99855.52
2019-04-13T07:43:54.468Z,99850.30
2019-04-13T07:46:33.251Z,99852.85
2019-04-13T07:49:03.345Z,99862.91
2019-04-13T07:51:33.473Z,99857.69
2019-04-13T07:54:04.327Z,99852.18
2019-04-13T07:56:32.272Z,99851.34
2019-04-13T07:59:00.704Z,99846.94
2019-04-13T08:01:29.057Z,99845.54
2019-04-13T08:03:57.412Z,99845.42
2019-04-13T08:06:26.145Z,99847.77
2019-04-13T08:08:56.739Z,99845.52
2019-04-13T08:11:25.256Z,99853.56
2019-04-13T08:13:54.980Z,99836.79
2019-04-13T08:16:25.041Z,99849.11
2019-04-13T08:18:55.202Z,99842.50
2019-04-13T08:21:23.648Z,99839.52
2019-04-13T08:23:56.004Z,99842.42
2019-04-13T08:26:25.393Z,99845.56
2019-04-13T08:28:54.194Z,99841.42
2019-04-13T08:31:26.515Z,99835.08
2019-04-13T08:33:53.618Z,99838.73
2019-04-13T08:36:22.061Z,99836.61
2019-04-13T08:38:58.526Z,99838.47
2019-04-13T08:41:21.874Z,99837.00
2019-04-13T08:43:52.229Z,99833.64
2019-04-13T08:46:20.752Z,99841.62
2019-04-13T08:48:51.187Z,99836.25
2019-04-13T08:51:21.241Z,99837.00
2019-04-13T08:53:53.966Z,99834.03
2019-04-13T08:56:23.035Z,99834.61
2019-04-13T08:58:51.448Z,99838.64
2019-04-13T09:01:19.898Z,99839.09
2019-04-13T09:03:48.245Z,99838.02
2019-04-13T09:06:17.426Z,99831.33
2019-04-13T09:08:45.919Z,99825.78
2019-04-13T09:11:18.442Z,99825.95
2019-04-13T09:13:44.444Z,99826.06
2019-04-13T09:16:13.080Z,99826.09
2019-04-13T09:19:04.025Z,99829.88
2019-04-13T09:21:31.960Z,99829.83
2019-04-13T09:24:00.621Z,99826.72
